createdAt,value
2022-07-30T00:01:21.896Z,66.50
2022-07-30T00:03:49.531Z,66.30
2022-07-30T00:06:19.018Z,66.80
2022-07-30T00:08:46.277Z,66.40
2022-07-30T00:11:13.633Z,66.70
2022-07-30T00:13:41.221Z,67.00
2022-07-30T00:16:08.594Z,66.80
2022-07-30T00:18:35.913Z,67.00
2022-07-30T00:21:04.286Z,67.00
2022-07-30T00:23:32.505Z,66.90
2022-07-30T00:26:03.096Z,67.70
2022-07-30T00:28:32.237Z,67.50
2022-07-30T00:31:00.612Z,67.20
2022-07-30T00:33:28.607Z,67.60
2022-07-30T00:35:55.810Z,69.50
2022-07-30T00:38:23.010Z,70.50
2022-07-30T00:40:50.194Z,70.70
2022-07-30T00:43:18.122Z,69.90
2022-07-30T00:45:45.563Z,70.00
2022-07-30T00:48:14.368Z,70.60
2022-07-30T00:50:41.834Z,71.00
2022-07-30T00:53:15.027Z,71.40
2022-07-30T00:55:42.374Z,72.10
2022-07-30T00:58:09.674Z,72.80
2022-07-30T01:00:37.484Z,72.30
2022-07-30T01:03:06.988Z,75.00
2022-07-30T01:05:34.474Z,74.00
2022-07-30T01:08:01.617Z,74.90
2022-07-30T01:10:28.824Z,74.50
2022-07-30T01:12:59.204Z,77.60
2022-07-30T01:15:27.109Z,77.10
2022-07-30T01:17:58.130Z,79.00
2022-07-30T01:20:32.149Z,81.30
2022-07-30T01:23:08.820Z,81.30
2022-07-30T01:25:58.110Z,82.30
2022-07-30T01:28:46.972Z,81.70
2022-07-30T01:31:16.093Z,82.40
2022-07-30T01:33:46.010Z,82.70
2022-07-30T01:36:15.535Z,84.30
2022-07-30T01:38:47.224Z,85.50
2022-07-30T01:41:16.148Z,84.10
2022-07-30T01:43:45.944Z,84.90
2022-07-30T01:46:15.185Z,86.20
2022-07-30T01:48:44.317Z,87.20
2022-07-30T01:51:13.460Z,86.10
2022-07-30T01:53:43.142Z,86.10
2022-07-30T01:56:16.882Z,86.70
2022-07-30T01:58:46.715Z,87.00
2022-07-30T02:01:14.214Z,86.30
2022-07-30T02:03:41.738Z,86.80
2022-07-30T02:06:26.644Z,86.50
2022-07-30T02:08:59.631Z,86.60
2022-07-30T02:11:45.620Z,87.70
2022-07-30T02:14:23.836Z,88.00
2022-07-30T02:16:56.262Z,86.90
2022-07-30T02:19:32.749Z,87.40
2022-07-30T02:22:08.511Z,87.30
2022-07-30T02:24:37.774Z,88.00
2022-07-30T02:27:18.450Z,88.10
2022-07-30T02:29:48.220Z,88.30
2022-07-30T02:32:20.365Z,87.80
2022-07-30T02:34:52.015Z,88.80
2022-07-30T02:37:39.211Z,89.00
2022-07-30T02:40:13.994Z,89.00
2022-07-30T02:42:43.801Z,88.70
2022-07-30T02:45:12.643Z,88.90
2022-07-30T02:47:41.121Z,89.30
2022-07-30T02:50:10.938Z,89.60
2022-07-30T02:52:40.633Z,89.60
2022-07-30T02:55:11.150Z,89.10
2022-07-30T02:57:43.313Z,90.10
2022-07-30T03:00:12.120Z,90.20
2022-07-30T03:02:43.578Z,90.30
2022-07-30T03:05:13.905Z,90.40
2022-07-30T03:07:42.266Z,90.50
2022-07-30T03:10:11.458Z,90.20
2022-07-30T03:12:40.566Z,90.60
2022-07-30T03:15:09.387Z,91.10
2022-07-30T03:17:44.323Z,90.60
2022-07-30T03:20:15.620Z,91.20
2022-07-30T03:22:44.611Z,91.30
2022-07-30T03:25:15.492Z,91.70
2022-07-30T03:27:45.702Z,92.10
2022-07-30T03:30:14.888Z,91.70
2022-07-30T03:32:43.559Z,91.80
2022-07-30T03:35:16.921Z,92.00
2022-07-30T03:37:46.296Z,92.40
2022-07-30T03:40:15.383Z,92.20
2022-07-30T03:42:43.903Z,91.80
2022-07-30T03:45:13.820Z,92.00
2022-07-30T03:47:43.275Z,92.00
2022-07-30T03:50:10.893Z,92.00
2022-07-30T03:52:41.288Z,92.10
2022-07-30T03:55:12.632Z,92.00
2022-07-30T03:57:40.221Z,92.00
2022-07-30T04:00:15.823Z,92.00
2022-07-30T04:02:47.592Z,91.90
2022-07-30T04:05:16.096Z,91.80
2022-07-30T04:07:45.239Z,91.50
2022-07-30T04:10:15.128Z,91.30
2022-07-30T04:12:42.614Z,90.90
2022-07-30T04:16:37.886Z,90.70
2022-07-30T04:18:03.083Z,90.50
2022-07-30T04:20:34.749Z,90.40
2022-07-30T04:23:03.391Z,90.20
2022-07-30T04:25:32.026Z,90.30
2022-07-30T04:28:03.050Z,90.30
2022-07-30T04:30:34.984Z,90.40
2022-07-30T04:33:04.417Z,90.50
2022-07-30T04:35:50.953Z,90.60
2022-07-30T04:38:20.349Z,91.00
2022-07-30T04:40:48.102Z,90.70
2022-07-30T04:43:16.169Z,91.20
2022-07-30T04:45:44.948Z,92.00
2022-07-30T04:48:12.288Z,92.40
2022-07-30T04:50:42.374Z,92.60
2022-07-30T04:53:11.318Z,93.10
2022-07-30T04:55:42.598Z,93.70
2022-07-30T04:58:11.432Z,93.50
2022-07-30T05:00:41.303Z,93.80
2022-07-30T05:03:13.081Z,93.80
2022-07-30T05:05:41.165Z,94.00
2022-07-30T05:08:08.728Z,93.60
2022-07-30T05:10:38.609Z,93.90
2022-07-30T05:13:13.065Z,94.00
2022-07-30T05:15:40.623Z,94.10
2022-07-30T05:18:08.665Z,94.20
2022-07-30T05:20:35.862Z,94.10
2022-07-30T05:23:03.532Z,94.30
2022-07-30T05:25:30.739Z,94.40
2022-07-30T05:27:58.388Z,94.50
2022-07-30T05:30:27.424Z,94.50
2022-07-30T05:32:56.035Z,94.60
2022-07-30T05:35:23.579Z,94.60
2022-07-30T05:37:50.775Z,95.00
2022-07-30T05:40:20.245Z,94.60
2022-07-30T05:42:47.415Z,94.20
2022-07-30T05:45:14.591Z,94.60
2022-07-30T05:47:41.799Z,95.10
2022-07-30T05:50:09.629Z,95.00
2022-07-30T05:52:36.779Z,94.90
2022-07-30T05:55:04.300Z,94.80
2022-07-30T05:57:36.116Z,94.70
2022-07-30T06:00:08.226Z,94.80
2022-07-30T06:02:40.793Z,95.10
2022-07-30T06:05:10.354Z,95.30
2022-07-30T06:07:37.651Z,95.40
2022-07-30T06:10:07.535Z,95.30
2022-07-30T06:12:34.732Z,95.30
2022-07-30T06:15:02.231Z,95.70
2022-07-30T06:17:31.817Z,95.30
2022-07-30T06:20:11.947Z,95.40
2022-07-30T06:22:40.417Z,95.80
2022-07-30T06:25:08.950Z,96.00
2022-07-30T06:27:39.764Z,96.10
2022-07-30T06:30:10.290Z,95.70
2022-07-30T06:32:39.929Z,95.50
2022-07-30T06:35:07.965Z,95.50
2022-07-30T06:38:00.566Z,95.10
2022-07-30T06:40:22.499Z,95.10
2022-07-30T06:42:49.720Z,94.90
2022-07-30T06:45:18.671Z,94.60
2022-07-30T06:47:46.358Z,94.40
2022-07-30T06:50:13.643Z,94.20
2022-07-30T06:52:40.792Z,94.10
2022-07-30T06:55:08.291Z,93.90
2022-07-30T06:57:40.126Z,94.00
2022-07-30T07:00:11.636Z,94.00
2022-07-30T07:02:39.655Z,93.90
2022-07-30T07:05:07.513Z,93.90
2022-07-30T07:07:41.879Z,94.20
2022-07-30T07:10:19.453Z,94.20
2022-07-30T07:12:47.709Z,94.10
2022-07-30T07:15:16.248Z,93.90
2022-07-30T07:17:43.501Z,93.90
2022-07-30T07:20:11.188Z,94.00
2022-07-30T07:22:38.494Z,94.00
2022-07-30T07:25:06.938Z,94.20
2022-07-30T07:27:34.319Z,93.90
2022-07-30T07:30:04.938Z,94.30
2022-07-30T07:32:34.642Z,93.90
2022-07-30T07:35:02.361Z,93.90
2022-07-30T07:37:29.923Z,94.00
2022-07-30T07:39:57.744Z,93.90
2022-07-30T07:42:26.877Z,94.00
2022-07-30T07:44:54.167Z,93.90
2022-07-30T07:47:21.394Z,93.80
2022-07-30T07:49:48.796Z,94.00
2022-07-30T07:52:16.053Z,94.40
2022-07-30T07:54:49.447Z,94.40
2022-07-30T07:57:17.574Z,94.30
2022-07-30T07:59:49.961Z,94.10
2022-07-30T08:02:20.374Z,93.90
2022-07-30T08:04:47.660Z,93.90
2022-07-30T08:07:15.086Z,93.90
2022-07-30T08:09:44.537Z,93.80
2022-07-30T08:12:13.371Z,94.00
2022-07-30T08:14:40.568Z,94.50
2022-07-30T08:17:08.568Z,95.20
2022-07-30T08:19:37.615Z,94.90
2022-07-30T08:22:04.869Z,94.80
2022-07-30T08:24:32.794Z,94.50
2022-07-30T08:27:00.552Z,94.50
2022-07-30T08:29:27.943Z,94.30
2022-07-30T08:31:57.434Z,94.00
2022-07-30T08:34:25.595Z,93.70
2022-07-30T08:36:53.130Z,93.80
2022-07-30T08:39:20.305Z,93.50
2022-07-30T08:41:48.805Z,93.10
2022-07-30T08:44:18.338Z,92.90
2022-07-30T08:46:48.033Z,92.70
2022-07-30T08:49:16.081Z,92.80
2022-07-30T08:51:43.731Z,92.90
2022-07-30T08:54:11.441Z,93.00
2022-07-30T08:56:38.752Z,92.90
2022-07-30T08:59:07.158Z,92.80
2022-07-30T09:01:34.328Z,92.70
2022-07-30T09:04:02.150Z,92.90
2022-07-30T09:06:29.899Z,92.40
2022-07-30T09:08:57.126Z,92.00
2022-07-30T09:11:24.299Z,91.70
2022-07-30T09:13:51.781Z,91.90
2022-07-30T09:16:26.841Z,91.40
2022-07-30T09:18:54.804Z,91.70
2022-07-30T09:21:24.947Z,91.10
2022-07-30T09:24:04.958Z,91.20
2022-07-30T09:26:36.146Z,90.90
2022-07-30T09:29:33.235Z,90.40
2022-07-30T09:32:03.568Z,90.50
2022-07-30T09:34:38.844Z,90.60
2022-07-30T09:37:18.524Z,90.20
2022-07-30T09:39:58.718Z,90.40
2022-07-30T09:42:28.487Z,89.30
2022-07-30T09:45:10.023Z,89.30
2022-07-30T09:47:39.871Z,89.30
2022-07-30T09:50:11.424Z,89.50
2022-07-30T09:52:44.047Z,87.80
2022-07-30T09:55:30.975Z,88.00
2022-07-30T09:58:01.601Z,87.80
2022-07-30T10:00:30.809Z,87.70
2022-07-30T10:03:00.800Z,88.30
2022-07-30T10:05:51.010Z,87.70
2022-07-30T10:08:21.783Z,87.00
2022-07-30T10:10:50.940Z,85.10
2022-07-30T10:13:20.641Z,84.90
2022-07-30T10:15:50.050Z,84.10
2022-07-30T10:18:18.328Z,84.30
2022-07-30T10:20:48.239Z,84.90
2022-07-30T10:23:16.102Z,84.80
2022-07-30T10:25:49.756Z,85.00
2022-07-30T10:28:26.798Z,84.50
2022-07-30T10:30:55.232Z,84.90
2022-07-30T10:33:37.744Z,84.50
2022-07-30T10:36:11.318Z,83.40
2022-07-30T10:38:41.716Z,83.60
2022-07-30T10:41:42.568Z,84.20
2022-07-30T10:44:24.989Z,83.80
2022-07-30T10:47:10.982Z,83.70
2022-07-30T10:49:49.956Z,83.30
2022-07-30T10:55:36.788Z,81.90
2022-07-30T10:58:32.830Z,81.30
2022-07-30T11:01:04.582Z,80.30
2022-07-30T11:04:25.547Z,80.30
2022-07-30T11:07:23.586Z,78.60
2022-07-30T11:10:08.743Z,79.60
2022-07-30T11:12:44.065Z,79.50
2022-07-30T11:15:19.288Z,79.30
2022-07-30T11:18:04.552Z,79.30
2022-07-30T11:20:39.802Z,78.50
2022-07-30T11:23:19.524Z,78.50
2022-07-30T11:25:51.239Z,78.80
2022-07-30T11:28:45.370Z,78.80
2022-07-30T11:31:37.190Z,79.30
2022-07-30T11:34:30.515Z,79.50
2022-07-30T11:37:18.336Z,79.30
2022-07-30T11:39:56.799Z,79.20
2022-07-30T11:42:29.581Z,78.60
2022-07-30T11:45:27.481Z,78.10
2022-07-30T11:48:01.809Z,77.90
2022-07-30T11:50:49.043Z,77.90
2022-07-30T11:53:21.869Z,76.80
2022-07-30T11:55:57.942Z,72.70
2022-07-30T11:58:34.832Z,74.60
2022-07-30T12:01:11.857Z,73.40
2022-07-30T12:03:44.700Z,74.30
2022-07-30T12:06:18.272Z,73.80
2022-07-30T12:08:47.813Z,74.00
2022-07-30T12:11:15.776Z,74.70
2022-07-30T12:13:55.099Z,74.60
2022-07-30T12:16:22.687Z,71.50
2022-07-30T12:18:49.973Z,73.80
2022-07-30T12:21:17.909Z,73.80
2022-07-30T12:24:00.853Z,73.40
2022-07-30T12:26:31.195Z,72.10
2022-07-30T12:29:00.782Z,72.70
2022-07-30T12:31:28.278Z,73.00
2022-07-30T12:33:58.255Z,72.50
2022-07-30T12:36:33.832Z,72.00
2022-07-30T12:39:02.860Z,70.10
2022-07-30T12:41:51.117Z,72.00
2022-07-30T12:44:42.062Z,71.00
2022-07-30T12:47:52.438Z,70.70
2022-07-30T12:50:19.851Z,70.30
2022-07-30T12:52:56.122Z,70.90
2022-07-30T12:55:36.053Z,68.50
2022-07-30T12:58:08.997Z,67.50
2022-07-30T13:00:54.965Z,67.90
2022-07-30T13:03:30.330Z,69.50
2022-07-30T13:05:59.156Z,70.60
2022-07-30T13:08:54.006Z,71.30
2022-07-30T13:11:24.157Z,71.30
2022-07-30T13:13:53.911Z,71.40
2022-07-30T13:16:25.620Z,71.50
2022-07-30T13:18:53.564Z,71.30
2022-07-30T13:21:22.834Z,71.80
2022-07-30T13:23:50.618Z,71.70
2022-07-30T13:26:17.958Z,71.60
2022-07-30T13:28:46.685Z,71.20
2022-07-30T13:31:15.140Z,70.70
2022-07-30T13:33:42.692Z,69.20
2022-07-30T13:36:10.562Z,70.00
2022-07-30T13:38:38.247Z,68.90
2022-07-30T13:41:05.778Z,69.40
2022-07-30T13:43:34.684Z,69.50
2022-07-30T13:46:03.331Z,69.30
2022-07-30T13:48:30.761Z,68.10
2022-07-30T13:50:58.223Z,67.90
2022-07-30T13:53:25.998Z,67.90
2022-07-30T13:55:53.213Z,68.00
2022-07-30T13:58:20.514Z,65.80
2022-07-30T14:00:48.396Z,63.60
2022-07-30T14:03:15.881Z,66.60
2022-07-30T14:05:43.836Z,65.60
2022-07-30T14:08:12.159Z,64.90
2022-07-30T14:10:40.969Z,66.60
2022-07-30T14:13:19.182Z,65.80
2022-07-30T14:15:48.700Z,66.00
2022-07-30T14:18:16.030Z,66.00
2022-07-30T14:20:46.858Z,66.20
2022-07-30T14:23:16.611Z,66.20
2022-07-30T14:25:44.673Z,66.30
2022-07-30T14:28:12.064Z,66.90
2022-07-30T14:30:39.476Z,66.00
2022-07-30T14:33:06.773Z,66.20
2022-07-30T14:35:34.216Z,66.10
2022-07-30T14:38:03.609Z,66.40
2022-07-30T14:40:30.956Z,66.60
2022-07-30T14:42:59.691Z,66.80
2022-07-30T14:45:27.334Z,66.80
2022-07-30T14:47:57.292Z,67.20
2022-07-30T14:50:24.462Z,67.10
2022-07-30T14:52:52.178Z,67.30
2022-07-30T14:55:19.528Z,67.70
2022-07-30T14:57:46.735Z,68.30
2022-07-30T15:00:14.483Z,68.70
2022-07-30T15:02:41.768Z,68.90
2022-07-30T15:05:09.669Z,69.30
2022-07-30T15:07:37.508Z,69.40
2022-07-30T15:10:07.373Z,69.90
2022-07-30T15:12:34.597Z,70.30
2022-07-30T15:15:09.135Z,71.20
2022-07-30T15:17:38.970Z,71.00
2022-07-30T15:20:11.480Z,70.90
2022-07-30T15:22:38.732Z,71.00
2022-07-30T15:25:06.645Z,71.20
2022-07-30T15:27:34.551Z,71.20
2022-07-30T15:30:03.052Z,71.20
2022-07-30T15:32:30.432Z,71.10
2022-07-30T15:34:58.986Z,71.30
2022-07-30T15:37:26.859Z,71.20
2022-07-30T15:39:54.853Z,71.00
2022-07-30T15:42:22.285Z,70.70
2022-07-30T15:45:14.251Z,70.40
2022-07-30T15:47:36.987Z,69.60
2022-07-30T15:50:05.595Z,69.10
2022-07-30T15:52:33.136Z,66.40
2022-07-30T15:55:00.311Z,66.10
2022-07-30T15:57:27.608Z,65.50
2022-07-30T15:59:54.797Z,66.40
2022-07-30T16:02:26.383Z,66.70
2022-07-30T16:04:54.296Z,66.50
2022-07-30T16:07:21.872Z,66.40
2022-07-30T16:09:49.111Z,66.00
2022-07-30T16:12:17.673Z,65.90
2022-07-30T16:14:44.971Z,65.20
2022-07-30T16:17:18.574Z,65.80
2022-07-30T16:19:45.832Z,66.10
2022-07-30T16:22:21.548Z,66.60
2022-07-30T16:24:51.341Z,65.80
2022-07-30T16:27:18.785Z,65.00
2022-07-30T16:29:46.807Z,64.80
2022-07-30T16:32:14.091Z,65.40
2022-07-30T16:34:42.418Z,66.20
2022-07-30T16:37:10.055Z,66.70
2022-07-30T16:39:37.226Z,67.20
2022-07-30T16:42:05.049Z,67.80
2022-07-30T16:44:34.195Z,68.10
2022-07-30T16:47:01.749Z,68.70
2022-07-30T16:49:30.449Z,68.70
2022-07-30T16:51:57.725Z,68.40
2022-07-30T16:54:25.097Z,68.80
2022-07-30T16:57:00.033Z,69.30
2022-07-30T16:59:34.856Z,69.70
2022-07-30T17:02:03.966Z,70.30
2022-07-30T17:04:31.274Z,70.00
2022-07-30T17:06:58.423Z,70.50
2022-07-30T17:09:25.955Z,71.30
2022-07-30T17:11:54.759Z,71.00
2022-07-30T17:14:26.789Z,71.70
2022-07-30T17:16:54.019Z,71.20
2022-07-30T17:19:21.135Z,71.50
2022-07-30T17:21:48.391Z,71.80
2022-07-30T17:24:15.702Z,72.00
2022-07-30T17:26:43.827Z,72.20
2022-07-30T17:29:16.801Z,73.70
2022-07-30T17:31:44.857Z,74.00
2022-07-30T17:34:14.600Z,73.30
2022-07-30T17:36:51.809Z,74.00
2022-07-30T17:40:19.309Z,73.90
2022-07-30T17:42:10.711Z,74.70
2022-07-30T17:44:39.548Z,74.30
2022-07-30T17:47:10.960Z,75.40
2022-07-30T17:49:39.768Z,75.10
2022-07-30T17:52:07.097Z,75.40
2022-07-30T17:54:34.398Z,75.10
2022-07-30T17:57:01.724Z,75.10
2022-07-30T17:59:29.335Z,76.00
2022-07-30T18:01:59.842Z,77.00
2022-07-30T18:04:27.719Z,76.90
2022-07-30T18:06:55.508Z,77.80
2022-07-30T18:09:22.694Z,78.70
2022-07-30T18:11:52.231Z,77.90
2022-07-30T18:14:19.640Z,77.70
2022-07-30T18:16:47.236Z,77.80
2022-07-30T18:19:22.667Z,77.80
2022-07-30T18:21:54.719Z,78.00
2022-07-30T18:24:24.582Z,78.10
2022-07-30T18:26:52.476Z,78.90
2022-07-30T18:29:20.951Z,78.60
2022-07-30T18:31:48.487Z,78.80
2022-07-30T18:34:16.241Z,78.80
2022-07-30T18:36:43.394Z,78.80
2022-07-30T18:39:10.651Z,78.90
2022-07-30T18:41:37.895Z,79.00
2022-07-30T18:44:05.103Z,79.50
2022-07-30T18:46:32.748Z,79.70
2022-07-30T18:49:20.948Z,79.70
2022-07-30T18:51:48.759Z,80.30
2022-07-30T18:54:18.212Z,80.90
2022-07-30T18:56:45.729Z,81.30
2022-07-30T18:59:13.558Z,81.50
2022-07-30T19:01:41.885Z,81.20
2022-07-30T19:04:10.770Z,83.10
2022-07-30T19:06:38.533Z,83.60
2022-07-30T19:09:09.126Z,83.10
2022-07-30T19:11:47.970Z,83.80
2022-07-30T19:14:15.670Z,83.50
2022-07-30T19:16:44.087Z,83.50
2022-07-30T19:19:15.127Z,84.60
2022-07-30T19:21:44.899Z,84.90
2022-07-30T19:24:12.580Z,85.10
2022-07-30T19:26:39.975Z,85.10
2022-07-30T19:29:12.803Z,84.40
2022-07-30T19:31:41.746Z,84.30
2022-07-30T19:34:10.930Z,84.40
2022-07-30T19:36:39.793Z,84.50
2022-07-30T19:39:08.248Z,84.30
2022-07-30T19:41:41.265Z,85.90
2022-07-30T19:44:12.875Z,85.70
2022-07-30T19:46:41.281Z,85.10
2022-07-30T19:49:11.561Z,84.90
2022-07-30T19:52:10.022Z,85.30
2022-07-30T19:54:27.954Z,86.50
2022-07-30T19:56:55.163Z,86.20
2022-07-30T19:59:43.672Z,86.00
2022-07-30T20:02:10.058Z,86.10
2022-07-30T20:04:37.377Z,85.80
2022-07-30T20:07:04.658Z,85.80
2022-07-30T20:09:31.975Z,86.00
2022-07-30T20:12:00.335Z,86.80
2022-07-30T20:14:30.173Z,86.30
2022-07-30T20:17:01.984Z,86.40
2022-07-30T20:19:35.981Z,86.50
2022-07-30T20:22:04.010Z,86.70
2022-07-30T20:24:34.027Z,87.00
2022-07-30T20:27:35.541Z,87.00
2022-07-30T20:29:49.066Z,86.90
2022-07-30T20:32:17.778Z,87.20
2022-07-30T20:34:47.597Z,87.00
2022-07-30T20:37:22.580Z,87.00
2022-07-30T20:39:50.471Z,87.30
2022-07-30T20:42:20.483Z,87.40
2022-07-30T20:44:53.610Z,87.40
2022-07-30T20:47:34.817Z,87.40
2022-07-30T20:50:09.644Z,87.40
2022-07-30T20:52:41.047Z,87.50
2022-07-30T20:55:22.175Z,87.50
2022-07-30T20:58:01.222Z,87.30
2022-07-30T21:00:37.576Z,87.40
2022-07-30T21:03:05.675Z,87.60
2022-07-30T21:05:36.592Z,87.70
2022-07-30T21:08:04.095Z,87.70
2022-07-30T21:10:36.454Z,87.40
2022-07-30T21:13:07.584Z,88.60
2022-07-30T21:15:36.260Z,87.70
2022-07-30T21:18:13.242Z,87.70
2022-07-30T21:20:42.166Z,87.80
2022-07-30T21:23:20.710Z,88.30
2022-07-30T21:26:02.096Z,88.00
2022-07-30T21:28:35.670Z,89.00
2022-07-30T21:31:07.149Z,88.60
2022-07-30T21:33:37.931Z,88.10
2022-07-30T21:36:12.734Z,88.30
2022-07-30T21:38:42.711Z,88.10
2022-07-30T21:44:00.072Z,88.50
2022-07-30T21:46:28.689Z,88.20
2022-07-30T21:48:58.516Z,88.50
2022-07-30T21:51:35.044Z,88.60
2022-07-30T21:54:07.174Z,88.10
2022-07-30T21:56:41.529Z,88.10
2022-07-30T21:59:24.636Z,88.00
2022-07-30T22:01:56.284Z,88.10
2022-07-30T22:04:23.901Z,88.10
2022-07-30T22:06:54.600Z,88.10
2022-07-30T22:09:33.858Z,88.40
2022-07-30T22:12:09.960Z,88.40
2022-07-30T22:14:43.510Z,88.70
2022-07-30T22:17:22.679Z,88.60
2022-07-30T22:19:53.001Z,88.30
2022-07-30T22:22:27.017Z,88.40
2022-07-30T22:24:57.154Z,88.10
2022-07-30T22:27:25.614Z,88.00
2022-07-30T22:29:55.752Z,88.00
2022-07-30T22:32:24.209Z,88.00
2022-07-30T22:34:52.904Z,88.00
2022-07-30T22:37:21.516Z,88.00
2022-07-30T22:39:51.745Z,88.30
2022-07-30T22:42:24.496Z,88.10
2022-07-30T22:44:53.166Z,88.20
2022-07-30T22:47:51.439Z,88.20
2022-07-30T22:50:12.530Z,88.00
2022-07-30T22:52:50.275Z,88.00
2022-07-30T22:55:27.354Z,87.10
2022-07-30T22:57:55.014Z,87.30
2022-07-30T23:00:28.252Z,86.80
2022-07-30T23:02:58.020Z,86.90
2022-07-30T23:05:25.570Z,86.50
2022-07-30T23:07:53.454Z,86.10
2022-07-30T23:10:21.141Z,85.40
2022-07-30T23:12:27.581Z,88.30
2022-07-30T23:12:51.911Z,85.90
2022-07-30T23:15:20.273Z,85.90
2022-07-30T23:17:48.202Z,84.10
2022-07-30T23:20:18.567Z,84.90
2022-07-30T23:22:46.123Z,84.60
2022-07-30T23:25:13.962Z,84.50
2022-07-30T23:27:41.823Z,84.00
2022-07-30T23:30:10.665Z,83.40
2022-07-30T23:32:38.780Z,84.10
2022-07-30T23:35:07.978Z,84.20
2022-07-30T23:37:48.230Z,83.50
2022-07-30T23:40:19.289Z,83.70
2022-07-30T23:42:47.874Z,83.60
2022-07-30T23:45:15.262Z,83.70
2022-07-30T23:48:00.827Z,83.70
2022-07-30T23:50:31.746Z,83.60
2022-07-30T23:52:59.542Z,84.20
2022-07-30T23:55:27.368Z,83.50
2022-07-30T23:57:54.914Z,83.40
